Time;durP1;ratioP1;P1;durP2;ratioP2;P2;SDS_P1;SDS_P2;PMS_P1;PMS_P2;Temp;Humidity;BMP_temperature;BMP_pressure;BME280_temperature;BME280_humidity;BME280_pressure;Samples;Min_cycle;Max_cycle;Signal;HPM_P1;HPM_P2
2023/10/10 00:02:20;;;;;;;4.82;1.77;;;18.60;82.10;;;;;;5068637;28;20074;-62
2023/10/10 00:04:47;;;;;;;7.63;2.42;;;18.60;82.20;;;;;;5068254;28;20549;-63
2023/10/10 00:07:17;;;;;;;4.22;2.50;;;18.60;82.20;;;;;;5070077;28;20029;-63
2023/10/10 00:09:44;;;;;;;4.75;2.20;;;18.60;82.20;;;;;;5070161;28;20444;-62
2023/10/10 00:12:25;;;;;;;4.45;2.30;;;18.60;82.20;;;;;;5068812;28;20032;-61
2023/10/10 00:14:51;;;;;;;5.32;2.45;;;18.70;82.30;;;;;;5069033;28;20497;-64
2023/10/10 00:17:17;;;;;;;3.22;2.05;;;18.70;82.40;;;;;;5048202;28;20063;-64
2023/10/10 00:19:51;;;;;;;4.57;2.40;;;18.70;82.40;;;;;;5071409;28;20029;-65
2023/10/10 00:22:21;;;;;;;4.07;2.30;;;18.70;82.30;;;;;;5069093;28;20033;-66
2023/10/10 00:24:48;;;;;;;4.25;2.63;;;18.70;82.40;;;;;;5059806;28;20029;-63
2023/10/10 00:27:14;;;;;;;3.75;1.90;;;18.70;82.40;;;;;;5067941;28;20043;-61
2023/10/10 00:29:43;;;;;;;3.83;2.22;;;18.70;82.30;;;;;;5067844;28;20407;-66
2023/10/10 00:32:22;;;;;;;3.75;2.38;;;18.70;82.30;;;;;;5058386;28;20025;-66
2023/10/10 00:34:49;;;;;;;3.83;2.67;;;18.70;82.20;;;;;;5057147;28;20069;-66
2023/10/10 00:37:29;;;;;;;3.58;2.33;;;18.60;82.10;;;;;;5059023;28;20494;-66
2023/10/10 00:39:55;;;;;;;3.80;2.30;;;18.60;82.10;;;;;;5056875;28;20570;-66
2023/10/10 00:42:38;;;;;;;4.93;2.85;;;18.50;82.10;;;;;;5044571;28;20043;-66
2023/10/10 00:45:09;;;;;;;2.80;2.45;;;18.50;82.10;;;;;;5063190;28;20068;-61
2023/10/10 00:47:43;;;;;;;3.67;2.80;;;18.50;82.10;;;;;;5060181;28;20068;-61
2023/10/10 00:50:15;;;;;;;3.28;2.33;;;18.40;82.10;;;;;;5060232;28;20020;-64
2023/10/10 00:52:48;;;;;;;5.32;3.28;;;18.40;82.10;;;;;;5067179;28;20063;-64
2023/10/10 00:55:16;;;;;;;4.03;3.10;;;18.40;82.20;;;;;;5067078;28;20475;-64
2023/10/10 00:57:43;;;;;;;2.28;1.73;;;18.40;82.30;;;;;;5065020;28;20112;-65
2023/10/10 01:00:15;;;;;;;3.58;2.63;;;18.40;82.30;;;;;;5063577;28;20036;-64
2023/10/10 01:02:42;;;;;;;5.40;3.47;;;18.30;82.10;;;;;;5062617;28;20036;-64
2023/10/10 01:05:19;;;;;;;8.82;3.10;;;18.30;82.70;;;;;;5065500;28;20059;-64
2023/10/10 01:07:48;;;;;;;5.03;2.67;;;18.30;82.10;;;;;;5063305;28;20479;-64
2023/10/10 01:10:26;;;;;;;2.88;2.05;;;18.30;82.20;;;;;;5059868;28;20521;-64
2023/10/10 01:12:53;;;;;;;5.88;3.08;;;18.30;82.10;;;;;;5065970;28;20047;-64
2023/10/10 01:15:25;;;;;;;4.22;2.17;;;18.30;82.10;;;;;;5063692;28;20078;-65
2023/10/10 01:17:51;;;;;;;2.53;2.00;;;18.30;82.10;;;;;;5066561;28;20036;-64
2023/10/10 01:23:17;;;;;;;3.33;2.28;;;18.20;81.90;;;;;;5046476;28;20045;-65
2023/10/10 01:25:47;;;;;;;3.42;2.33;;;18.20;81.90;;;;;;5066885;28;20051;-65
2023/10/10 01:33:22;;;;;;;;;;;18.10;81.90;;;;;;5063239;28;20036;-65
2023/10/10 01:35:58;;;;;;;3.80;2.50;;;18.10;82.00;;;;;;5069089;28;20298;-65
2023/10/10 01:38:34;;;;;;;4.20;2.88;;;18.00;82.10;;;;;;5065790;28;20082;-61
2023/10/10 01:41:14;;;;;;;4.72;2.55;;;18.00;82.10;;;;;;5067367;28;20039;-65
2023/10/10 01:43:46;;;;;;;4.05;2.72;;;18.00;82.00;;;;;;5052213;28;20047;-64
2023/10/10 01:46:29;;;;;;;4.55;2.45;;;18.00;82.00;;;;;;5045449;28;20450;-65
2023/10/10 01:49:01;;;;;;;2.95;2.17;;;18.10;82.00;;;;;;5044760;28;20024;-65
2023/10/10 01:51:33;;;;;;;4.28;2.78;;;18.00;81.90;;;;;;5064033;28;20029;-65
2023/10/10 01:54:12;;;;;;;2.70;1.90;;;18.00;81.90;;;;;;5064344;28;20082;-65
2023/10/10 01:56:38;;;;;;;5.90;3.30;;;18.00;81.90;;;;;;5064769;28;20040;-62
2023/10/10 01:59:04;;;;;;;5.50;2.97;;;17.90;81.90;;;;;;5066339;28;20458;-62
2023/10/10 02:01:31;;;;;;;4.97;2.70;;;17.90;82.20;;;;;;5050297;28;20120;-62
2023/10/10 02:03:58;;;;;;;3.78;2.88;;;17.90;81.90;;;;;;5066274;28;20036;-62
2023/10/10 02:08:54;;;;;;;4.05;2.50;;;17.80;81.90;;;;;;5066907;28;20399;-62
2023/10/10 02:11:22;;;;;;;5.60;3.33;;;17.80;81.80;;;;;;5068406;28;20052;-62
2023/10/10 02:13:48;;;;;;;5.05;2.50;;;17.80;81.80;;;;;;5067256;28;20036;-62
2023/10/10 02:16:17;;;;;;;4.93;2.85;;;17.80;81.70;;;;;;5068018;28;20507;-63
2023/10/10 02:18:51;;;;;;;5.32;3.15;;;17.70;81.40;;;;;;5051644;28;20086;-62
2023/10/10 02:21:31;;;;;;;3.00;2.20;;;17.70;81.40;;;;;;5068898;28;20032;-62
2023/10/10 02:24:25;;;;;;;6.35;2.85;;;17.70;81.40;;;;;;5063741;28;20048;-62
2023/10/10 02:26:51;;;;;;;5.90;3.28;;;17.70;81.50;;;;;;5064793;28;20376;-62
2023/10/10 02:29:18;;;;;;;3.63;2.33;;;17.60;81.60;;;;;;5066459;28;20054;-62
2023/10/10 02:31:56;;;;;;;3.13;2.42;;;17.60;81.50;;;;;;5065337;28;20033;-62
2023/10/10 02:34:22;;;;;;;3.90;2.75;;;17.60;81.50;;;;;;5065863;28;20078;-62
2023/10/10 02:37:09;;;;;;;5.28;2.75;;;17.50;81.50;;;;;;5049720;28;20418;-63
2023/10/10 02:39:40;;;;;;;4.63;2.47;;;17.50;81.40;;;;;;5054493;28;20036;-62
2023/10/10 02:42:13;;;;;;;6.57;3.05;;;17.50;81.50;;;;;;5046380;28;20028;-65
2023/10/10 02:44:46;;;;;;;4.50;2.40;;;17.50;81.40;;;;;;5061719;28;20116;-65
2023/10/10 02:47:13;;;;;;;7.35;2.95;;;17.50;81.40;;;;;;5067167;28;20111;-62
2023/10/10 02:49:42;;;;;;;7.63;2.50;;;17.40;81.40;;;;;;5061787;28;20051;-62
2023/10/10 02:52:08;;;;;;;5.03;2.75;;;17.40;81.40;;;;;;5060121;28;20025;-63
2023/10/10 02:54:34;;;;;;;5.90;3.17;;;17.40;81.40;;;;;;5059509;28;20076;-62
2023/10/10 02:59:50;;;;;;;6.22;3.15;;;17.30;81.50;;;;;;5043677;28;20442;-65
2023/10/10 03:02:20;;;;;;;6.90;3.13;;;17.30;81.60;;;;;;5056536;28;20029;-65
2023/10/10 03:05:06;;;;;;;8.45;3.67;;;17.30;81.60;;;;;;5063010;28;20423;-65
2023/10/10 03:07:32;;;;;;;6.68;3.53;;;17.30;81.50;;;;;;5060005;28;20394;-65
2023/10/10 03:12:31;;;;;;;6.43;3.95;;;17.30;81.50;;;;;;5063419;28;20033;-65
2023/10/10 03:18:03;;;;;;;6.15;3.97;;;17.30;81.70;;;;;;5063907;28;20047;-65
2023/10/10 03:26:04;;;;;;;9.27;4.25;;;17.30;82.00;;;;;;5065943;28;20032;-65
2023/10/10 03:28:32;;;;;;;9.27;5.60;;;17.30;82.00;;;;;;5063542;28;20028;-65
2023/10/10 03:31:10;;;;;;;8.63;4.70;;;17.30;82.10;;;;;;5064945;28;20075;-65
2023/10/10 05:25:23;;;;;;;7.00;4.53;;;17.70;84.80;;;;;;5063247;28;20047;-62
2023/10/10 05:27:58;;;;;;;7.07;4.53;;;17.70;84.80;;;;;;5069869;28;20086;-62
2023/10/10 05:30:25;;;;;;;7.30;4.55;;;17.70;84.80;;;;;;5068280;28;20032;-62
2023/10/10 05:33:01;;;;;;;10.02;5.85;;;17.70;84.80;;;;;;5068697;28;20412;-62
2023/10/10 05:35:34;;;;;;;9.73;5.65;;;17.70;84.80;;;;;;5065109;28;20028;-62
2023/10/10 05:38:01;;;;;;;13.52;7.47;;;17.70;84.90;;;;;;5069124;28;20025;-62
2023/10/10 05:40:33;;;;;;;11.02;7.05;;;17.70;85.00;;;;;;5068120;28;20024;-62
2023/10/10 05:43:03;;;;;;;8.00;5.43;;;17.60;85.20;;;;;;5066045;28;20039;-62
2023/10/10 05:45:31;;;;;;;10.02;6.32;;;17.60;86.00;;;;;;5069651;28;20398;-62
2023/10/10 05:47:57;;;;;;;9.13;4.35;;;17.60;85.40;;;;;;5069181;28;20024;-62
2023/10/10 05:50:22;;;;;;;10.90;6.53;;;17.60;85.40;;;;;;5067028;28;20075;-62
2023/10/10 05:52:48;;;;;;;11.75;5.78;;;17.60;85.30;;;;;;5041081;28;20435;-62
2023/10/10 05:55:15;;;;;;;11.25;6.45;;;17.60;85.40;;;;;;5068611;28;20032;-62
2023/10/10 05:57:41;;;;;;;6.47;4.70;;;17.70;85.40;;;;;;5069128;28;20037;-65
2023/10/10 06:00:11;;;;;;;12.43;6.07;;;17.70;85.30;;;;;;5066212;28;20034;-65
2023/10/10 06:02:37;;;;;;;14.43;6.60;;;17.70;85.30;;;;;;5065895;28;20067;-65
2023/10/10 06:05:08;;;;;;;10.50;6.18;;;17.70;85.30;;;;;;5051615;28;20056;-62
2023/10/10 06:07:37;;;;;;;12.63;6.63;;;17.70;85.30;;;;;;5067838;28;20036;-62
2023/10/10 06:10:06;;;;;;;9.73;5.95;;;17.70;85.40;;;;;;5062683;28;20388;-62
2023/10/10 06:12:33;;;;;;;11.15;5.47;;;17.70;85.50;;;;;;5069363;28;20036;-62
2023/10/10 06:15:05;;;;;;;10.52;6.13;;;17.70;85.40;;;;;;5067046;28;20039;-62
2023/10/10 06:17:33;;;;;;;10.77;6.53;;;17.70;85.40;;;;;;5068916;28;20036;-62
2023/10/10 06:20:00;;;;;;;12.55;6.70;;;17.70;85.30;;;;;;5061922;28;20284;-63
2023/10/10 06:22:29;;;;;;;15.98;7.03;;;17.80;85.40;;;;;;5049096;28;20040;-62
2023/10/10 06:24:58;;;;;;;12.68;6.80;;;17.70;85.40;;;;;;5060382;28;20082;-62
2023/10/10 06:27:28;;;;;;;13.38;6.40;;;17.70;85.50;;;;;;5068434;28;20021;-62
2023/10/10 06:30:00;;;;;;;11.05;6.88;;;17.70;85.50;;;;;;5062501;28;20041;-62
2023/10/10 06:32:26;;;;;;;15.90;7.03;;;17.70;85.70;;;;;;5060501;28;20099;-62
2023/10/10 06:35:04;;;;;;;13.50;7.93;;;17.70;85.60;;;;;;5065316;28;20028;-62
2023/10/10 06:37:30;;;;;;;10.60;6.95;;;17.70;85.80;;;;;;5052564;28;20044;-62
2023/10/10 06:40:07;;;;;;;11.98;7.55;;;17.70;85.80;;;;;;5066264;28;20439;-63
2023/10/10 06:42:33;;;;;;;12.48;6.57;;;17.70;85.80;;;;;;5068098;28;20043;-63
2023/10/10 06:45:07;;;;;;;11.10;6.53;;;17.70;85.80;;;;;;5067461;28;20036;-66
2023/10/10 06:47:39;;;;;;;14.10;7.57;;;17.70;85.70;;;;;;5046796;28;20029;-66
2023/10/10 06:50:11;;;;;;;19.58;9.43;;;17.80;85.70;;;;;;5066727;28;20052;-66
2023/10/10 06:52:37;;;;;;;18.52;8.77;;;17.80;85.70;;;;;;5052347;28;20419;-66
2023/10/10 06:55:20;;;;;;;18.48;8.95;;;17.80;85.90;;;;;;5067566;28;20025;-66
2023/10/10 06:57:57;;;;;;;19.90;8.80;;;17.70;86.00;;;;;;5055462;28;20502;-66
2023/10/10 07:00:44;;;;;;;15.68;9.13;;;17.80;86.10;;;;;;5067351;28;20037;-66
2023/10/10 07:03:11;;;;;;;19.90;9.20;;;17.80;86.10;;;;;;5065638;28;20045;-66
2023/10/10 07:05:39;;;;;;;18.20;9.57;;;17.80;86.00;;;;;;5066971;28;20064;-63
2023/10/10 07:08:24;;;;;;;24.05;9.27;;;17.80;85.90;;;;;;5067328;28;20031;-63
2023/10/10 07:10:53;;;;;;;21.73;10.55;;;17.90;85.90;;;;;;5063810;28;20383;-63
2023/10/10 07:13:21;;;;;;;17.30;9.07;;;17.90;85.90;;;;;;5044132;28;20021;-63
2023/10/10 07:15:53;;;;;;;18.40;8.13;;;17.80;85.90;;;;;;5063715;28;20031;-63
2023/10/10 07:18:27;;;;;;;;;;;17.90;85.90;;;;;;5067603;28;20542;-63
2023/10/10 07:21:04;;;;;;;14.18;7.60;;;17.80;85.90;;;;;;5065603;28;19991;-63
2023/10/10 07:23:37;;;;;;;15.45;10.07;;;17.90;85.90;;;;;;5064498;28;20070;-63
2023/10/10 07:26:18;;;;;;;15.82;9.02;;;17.90;85.80;;;;;;5066204;28;20372;-63
2023/10/10 07:28:53;;;;;;;15.00;8.52;;;17.90;85.70;;;;;;5066717;28;20039;-63
2023/10/10 07:31:21;;;;;;;18.35;9.25;;;18.00;85.60;;;;;;5046138;28;20495;-63
2023/10/10 07:34:03;;;;;;;12.27;7.93;;;18.00;85.40;;;;;;5046124;28;20403;-63
2023/10/10 07:36:31;;;;;;;12.40;7.50;;;18.00;85.40;;;;;;5067217;28;20043;-63
2023/10/10 07:41:46;;;;;;;16.40;8.10;;;18.10;85.30;;;;;;5035765;28;20051;-63
2023/10/10 07:44:16;;;;;;;12.38;8.50;;;18.10;85.00;;;;;;5061931;28;20595;-63
2023/10/10 07:47:07;;;;;;;15.05;9.27;;;18.10;85.10;;;;;;5063564;28;20431;-64
2023/10/10 07:49:27;;;;;;;18.23;8.90;;;18.10;85.00;;;;;;5066821;28;20033;-63
2023/10/10 07:51:53;;;;;;;17.45;10.23;;;18.10;85.00;;;;;;5069970;28;20039;-63
2023/10/10 07:54:33;;;;;;;15.73;9.27;;;18.20;84.80;;;;;;5057399;28;20593;-62
2023/10/10 07:57:04;;;;;;;18.88;8.65;;;18.10;84.80;;;;;;5059960;28;20048;-62
2023/10/10 07:59:36;;;;;;;10.80;6.25;;;18.10;84.90;;;;;;5055717;28;20032;-65
2023/10/10 08:02:20;;;;;;;15.65;8.30;;;18.20;84.90;;;;;;5062034;28;20044;-63
2023/10/10 08:04:51;;;;;;;11.95;6.63;;;18.20;84.60;;;;;;5068680;28;20060;-63
2023/10/10 08:07:20;;;;;;;16.08;6.65;;;18.30;84.50;;;;;;5062840;28;20133;-66
2023/10/10 08:09:48;;;;;;;11.82;7.13;;;18.30;84.40;;;;;;5063801;28;20033;-64
2023/10/10 08:12:14;;;;;;;13.60;6.78;;;18.40;84.20;;;;;;5049146;28;20120;-64
2023/10/10 08:14:40;;;;;;;12.77;7.03;;;18.40;84.10;;;;;;5065752;28;20536;-64
2023/10/10 08:17:29;;;;;;;8.73;5.53;;;18.40;83.70;;;;;;5065822;28;20035;-64
2023/10/10 08:19:52;;;;;;;12.85;6.57;;;18.40;83.70;;;;;;5061075;28;20044;-66
2023/10/10 08:22:19;;;;;;;15.95;8.00;;;18.40;83.50;;;;;;5062677;28;20549;-65
2023/10/10 08:24:45;;;;;;;14.82;7.70;;;18.40;83.30;;;;;;5062157;28;20136;-65
2023/10/10 08:27:11;;;;;;;12.00;7.43;;;18.40;83.00;;;;;;5063688;28;20063;-65
2023/10/10 08:29:40;;;;;;;11.77;7.03;;;18.50;82.50;;;;;;5047933;28;20036;-64
2023/10/10 08:32:05;;;;;;;11.52;7.93;;;18.50;82.40;;;;;;5066086;28;20055;-65
2023/10/10 08:34:31;;;;;;;8.73;5.90;;;18.50;81.90;;;;;;5068537;28;20471;-65
2023/10/10 08:37:03;;;;;;;10.68;5.45;;;18.50;81.80;;;;;;5049515;28;20108;-65
2023/10/10 08:39:35;;;;;;;10.98;5.85;;;18.50;81.50;;;;;;5063976;28;20024;-64
2023/10/10 08:42:05;;;;;;;9.48;6.65;;;18.50;81.20;;;;;;5064671;28;20029;-65
2023/10/10 08:44:38;;;;;;;11.43;6.85;;;18.50;81.10;;;;;;5059957;28;20036;-65
2023/10/10 08:47:15;;;;;;;10.35;7.18;;;18.50;80.90;;;;;;5065041;28;20067;-65
2023/10/10 08:49:42;;;;;;;9.38;5.20;;;18.60;81.00;;;;;;5061238;28;20422;-65
2023/10/10 08:52:08;;;;;;;10.27;6.40;;;18.60;81.20;;;;;;5066577;28;20043;-65
2023/10/10 08:54:35;;;;;;;11.38;5.72;;;18.70;80.80;;;;;;5058180;28;20056;-65
2023/10/10 08:57:03;;;;;;;12.45;5.93;;;18.80;80.70;;;;;;5042403;28;20392;-65
2023/10/10 08:59:32;;;;;;;11.93;6.60;;;18.90;80.30;;;;;;5047083;28;20032;-65
2023/10/10 09:02:07;;;;;;;10.52;7.13;;;19.00;80.00;;;;;;5044978;28;20044;-65
2023/10/10 09:04:33;;;;;;;15.07;7.22;;;19.10;79.80;;;;;;5045374;28;20037;-65
2023/10/10 09:07:01;;;;;;;8.07;4.82;;;19.10;79.00;;;;;;5047067;28;20037;-65
2023/10/10 09:09:34;;;;;;;9.57;6.38;;;19.10;79.00;;;;;;5047510;28;20040;-65
2023/10/10 09:12:04;;;;;;;9.93;5.35;;;19.20;78.60;;;;;;5044126;28;20022;-65
2023/10/10 09:14:36;;;;;;;10.32;5.32;;;19.30;78.70;;;;;;5044148;28;20041;-65
2023/10/10 09:17:06;;;;;;;9.65;5.22;;;19.30;78.10;;;;;;5044277;28;20026;-65
2023/10/10 09:19:32;;;;;;;8.35;6.18;;;19.40;78.00;;;;;;5043624;28;20045;-65
2023/10/10 09:22:01;;;;;;;9.98;5.18;;;19.40;77.20;;;;;;5043240;28;20033;-65
2023/10/10 09:24:31;;;;;;;9.38;6.15;;;19.40;77.20;;;;;;5046389;28;20332;-65
2023/10/10 09:26:59;;;;;;;5.45;4.47;;;19.40;76.70;;;;;;5044217;28;20561;-65
2023/10/10 09:29:32;;;;;;;10.73;5.13;;;19.40;76.70;;;;;;5049592;28;20029;-65
2023/10/10 09:31:59;;;;;;;9.35;5.03;;;19.50;76.60;;;;;;5047783;28;20209;-65
2023/10/10 09:34:29;;;;;;;9.70;4.72;;;19.50;76.50;;;;;;5044024;28;20490;-65
2023/10/10 09:36:57;;;;;;;6.07;4.50;;;19.70;76.40;;;;;;5047699;28;20040;-65
2023/10/10 09:39:37;;;;;;;6.90;5.25;;;19.80;75.60;;;;;;5048444;28;20460;-65
2023/10/10 09:42:07;;;;;;;8.65;5.55;;;19.90;75.20;;;;;;5047738;28;20032;-65
2023/10/10 09:47:43;;;;;;;6.43;4.03;;;20.00;74.10;;;;;;5040972;28;20573;-65
2023/10/10 09:52:55;;;;;;;10.63;5.22;;;20.30;74.00;;;;;;5044226;28;20049;-65
2023/10/10 10:00:34;;;;;;;8.02;5.13;;;20.60;72.50;;;;;;5068084;28;20037;-65
2023/10/10 10:03:31;;;;;;;9.15;4.82;;;20.80;72.50;;;;;;5066722;28;20398;-65
2023/10/10 10:06:05;;;;;;;7.95;5.03;;;20.90;72.20;;;;;;5064873;28;20674;-65
2023/10/10 10:08:48;;;;;;;9.57;5.13;;;21.00;71.50;;;;;;5057924;28;20474;-65
2023/10/10 10:11:25;;;;;;;13.02;5.35;;;21.10;71.00;;;;;;5067070;28;20039;-66
2023/10/10 10:14:18;;;;;;;9.10;4.75;;;21.20;70.20;;;;;;5068211;28;20031;-65
2023/10/10 10:17:18;;;;;;;7.95;4.60;;;21.30;70.00;;;;;;5067228;28;20028;-65
2023/10/10 10:19:45;;;;;;;7.05;4.47;;;21.50;70.30;;;;;;5047310;28;20017;-65
2023/10/10 10:22:20;;;;;;;6.03;4.50;;;21.70;69.40;;;;;;5068042;28;20029;-65
2023/10/10 10:25:21;;;;;;;5.50;3.13;;;21.90;69.10;;;;;;5063777;28;20033;-64
2023/10/10 10:27:43;;;;;;;4.18;3.10;;;22.10;69.10;;;;;;5067666;28;20060;-65
2023/10/10 10:30:39;;;;;;;8.55;4.35;;;22.30;68.90;;;;;;5060782;28;20372;-62
2023/10/10 10:33:09;;;;;;;8.75;4.13;;;22.60;68.50;;;;;;5066237;28;20029;-62
2023/10/10 10:36:06;;;;;;;9.30;5.35;;;22.70;67.50;;;;;;5066970;28;20029;-62
2023/10/10 10:38:39;;;;;;;9.10;4.53;;;22.80;66.10;;;;;;5065826;28;20062;-62
2023/10/10 10:41:07;;;;;;;6.30;3.88;;;22.80;66.00;;;;;;5064290;28;20028;-62
2023/10/10 10:43:41;;;;;;;7.00;4.43;;;22.90;66.50;;;;;;5062797;28;20024;-62
2023/10/10 10:46:12;;;;;;;13.23;5.53;;;23.00;66.50;;;;;;5060576;28;20032;-62
2023/10/10 10:48:40;;;;;;;10.70;4.05;;;23.00;64.80;;;;;;5061811;28;20364;-62
2023/10/10 10:51:22;;;;;;;7.75;4.70;;;22.90;65.10;;;;;;5061519;28;21029;-62
2023/10/10 10:53:52;;;;;;;8.27;4.57;;;23.00;65.40;;;;;;5058059;28;20107;-62
2023/10/10 11:01:17;;;;;;;8.95;4.15;;;23.20;64.50;;;;;;5066805;28;20037;-65
2023/10/10 11:03:44;;;;;;;6.75;4.07;;;23.30;64.10;;;;;;5064100;28;20109;-65
2023/10/10 11:06:14;;;;;;;7.10;3.25;;;23.30;64.40;;;;;;5064915;28;20056;-64
2023/10/10 11:16:38;;;;;;;7.20;5.10;;;23.80;64.60;;;;;;5050741;28;20039;-65
2023/10/10 11:21:53;;;;;;;7.45;3.95;;;24.00;62.30;;;;;;5064656;28;20035;-65
2023/10/10 11:24:25;;;;;;;8.27;4.63;;;24.10;62.50;;;;;;5070677;28;20033;-65
2023/10/10 11:29:45;;;;;;;8.52;4.03;;;24.20;62.10;;;;;;5069408;28;20383;-65
2023/10/10 11:32:24;;;;;;;7.85;3.78;;;24.30;62.40;;;;;;5066440;28;20066;-65
2023/10/10 11:34:57;;;;;;;5.30;2.33;;;24.50;61.90;;;;;;5070248;28;20040;-65
2023/10/10 11:37:26;;;;;;;6.57;3.20;;;24.70;62.20;;;;;;5067395;28;20064;-64
2023/10/10 11:40:19;;;;;;;8.75;4.13;;;24.90;60.30;;;;;;5050302;28;20033;-64
2023/10/10 11:42:49;;;;;;;4.30;2.67;;;25.00;60.80;;;;;;5068627;28;20082;-64
2023/10/10 11:45:19;;;;;;;8.40;3.88;;;25.10;61.00;;;;;;5070652;28;20044;-62
2023/10/10 11:47:47;;;;;;;5.90;3.80;;;25.20;59.50;;;;;;5069392;28;20029;-62
2023/10/10 11:50:17;;;;;;;6.88;4.13;;;25.10;59.10;;;;;;5068343;28;20410;-62
2023/10/10 11:53:01;;;;;;;4.50;2.50;;;25.10;59.50;;;;;;5070059;28;20134;-62
2023/10/10 11:55:28;;;;;;;4.30;2.35;;;25.10;60.00;;;;;;5048115;28;20472;-62
2023/10/10 11:57:58;;;;;;;7.28;3.00;;;25.40;60.30;;;;;;5046135;28;20040;-62
2023/10/10 12:03:32;;;;;;;10.18;4.18;;;25.70;60.40;;;;;;5042564;28;20044;-62
2023/10/10 12:05:59;;;;;;;5.07;3.15;;;25.80;58.10;;;;;;5046665;28;20562;-62
2023/10/10 12:08:25;;;;;;;6.43;3.90;;;25.70;58.20;;;;;;5050301;28;20032;-62
2023/10/10 12:10:52;;;;;;;3.50;2.63;;;25.60;58.80;;;;;;5050861;28;20037;-62
2023/10/10 12:15:53;;;;;;;6.35;2.63;;;25.60;58.80;;;;;;5050812;28;20041;-65
2023/10/10 12:18:20;;;;;;;6.70;4.05;;;25.40;59.00;;;;;;5043411;28;20040;-65
2023/10/10 12:20:45;;;;;;;5.65;3.20;;;25.20;59.10;;;;;;5048338;28;20028;-65
2023/10/10 12:23:11;;;;;;;6.20;3.90;;;25.10;58.50;;;;;;5048253;28;20887;-65
2023/10/10 12:25:41;;;;;;;7.18;3.63;;;25.20;58.80;;;;;;5050815;28;20021;-65
2023/10/10 12:28:12;;;;;;;6.53;3.70;;;25.20;58.50;;;;;;5048086;28;20033;-65
2023/10/10 12:30:41;;;;;;;4.72;2.85;;;25.30;59.20;;;;;;5048597;28;20044;-62
2023/10/10 12:33:13;;;;;;;7.05;4.00;;;25.50;59.30;;;;;;5049821;28;20384;-62
2023/10/10 12:35:47;;;;;;;9.70;3.13;;;25.60;59.00;;;;;;5045496;28;20487;-62
2023/10/10 12:38:23;;;;;;;4.88;3.35;;;25.70;58.90;;;;;;5049357;28;20029;-62
2023/10/10 12:40:49;;;;;;;3.40;2.72;;;25.70;57.90;;;;;;5045647;28;20442;-62
2023/10/10 12:43:18;;;;;;;6.72;3.40;;;25.60;58.60;;;;;;5046283;28;20029;-62
2023/10/10 12:45:47;;;;;;;5.97;2.83;;;25.60;58.50;;;;;;5048337;28;20135;-62
2023/10/10 12:48:14;;;;;;;8.18;3.13;;;25.60;58.20;;;;;;5046778;28;20026;-62
2023/10/10 12:50:44;;;;;;;7.07;2.95;;;25.50;57.90;;;;;;5049544;28;20547;-62
2023/10/10 12:53:15;;;;;;;4.35;2.85;;;25.50;58.20;;;;;;5048236;28;20037;-62
2023/10/10 12:55:52;;;;;;;9.90;3.15;;;25.50;58.60;;;;;;5067048;28;20419;-62
2023/10/10 12:58:22;;;;;;;4.22;2.00;;;25.40;58.60;;;;;;5065704;28;20028;-63
2023/10/10 13:00:52;;;;;;;8.00;3.42;;;25.40;59.10;;;;;;5071017;28;20044;-63
2023/10/10 13:03:19;;;;;;;8.07;3.10;;;25.40;57.90;;;;;;5069081;28;20117;-65
2023/10/10 13:05:52;;;;;;;6.18;3.40;;;25.30;57.80;;;;;;5065911;28;20037;-65
2023/10/10 13:08:20;;;;;;;7.40;3.78;;;25.20;58.00;;;;;;5064887;28;20024;-65
2023/10/10 13:10:54;;;;;;;4.10;2.42;;;25.40;58.30;;;;;;5066303;28;20463;-63
2023/10/10 13:13:26;;;;;;;6.28;3.28;;;25.50;58.50;;;;;;5065881;28;20144;-62
2023/10/10 13:16:07;;;;;;;6.13;3.28;;;25.80;57.50;;;;;;5070770;28;20093;-65
2023/10/10 13:18:35;;;;;;;6.93;2.90;;;26.00;57.00;;;;;;5053815;28;20652;-65
2023/10/10 13:21:02;;;;;;;4.72;2.95;;;26.10;56.90;;;;;;5068155;28;20092;-65
2023/10/10 13:23:28;;;;;;;8.80;3.53;;;26.30;57.30;;;;;;5068055;28;20033;-65
2023/10/10 13:25:54;;;;;;;3.78;1.88;;;27.10;55.00;;;;;;5052668;28;20112;-65
2023/10/10 13:28:21;;;;;;;3.70;1.90;;;28.40;54.30;;;;;;5067758;28;20044;-65
2023/10/10 13:30:47;;;;;;;4.45;2.17;;;29.60;51.50;;;;;;5067134;28;20048;-66
2023/10/10 13:33:17;;;;;;;4.13;2.80;;;30.00;50.00;;;;;;5049773;28;20025;-65
2023/10/10 13:35:44;;;;;;;4.97;3.28;;;29.50;49.50;;;;;;5069425;28;20024;-65
2023/10/10 13:38:10;;;;;;;5.45;2.83;;;28.90;50.10;;;;;;5061456;28;20190;-66
2023/10/10 13:40:51;;;;;;;4.63;2.55;;;28.30;51.30;;;;;;5066120;28;20028;-66
2023/10/10 13:43:17;;;;;;;3.83;2.30;;;28.00;51.70;;;;;;5067796;28;20024;-66
2023/10/10 13:45:50;;;;;;;4.22;1.58;;;28.20;52.20;;;;;;5059689;28;20033;-62
2023/10/10 13:48:23;;;;;;;4.05;2.28;;;28.90;51.40;;;;;;5067269;28;20036;-62
2023/10/10 13:50:51;;;;;;;2.75;1.65;;;29.00;49.70;;;;;;5068428;28;20078;-63
2023/10/10 13:53:17;;;;;;;5.72;2.17;;;28.70;49.70;;;;;;5050919;28;20051;-65
2023/10/10 13:55:44;;;;;;;4.03;2.42;;;28.10;50.10;;;;;;5064229;28;21709;-66
2023/10/10 13:58:12;;;;;;;8.77;2.35;;;27.70;51.50;;;;;;5059383;28;20844;-65
2023/10/10 14:00:41;;;;;;;4.22;1.98;;;27.70;52.60;;;;;;5066815;28;20054;-66
2023/10/10 14:03:07;;;;;;;5.18;1.90;;;27.90;52.60;;;;;;5067831;28;20119;-63
2023/10/10 14:05:37;;;;;;;2.85;2.08;;;28.50;52.60;;;;;;5066008;28;20033;-63
2023/10/10 14:08:09;;;;;;;9.82;2.60;;;29.30;51.30;;;;;;5066810;28;20097;-63
2023/10/10 14:10:40;;;;;;;5.45;2.72;;;29.60;49.10;;;;;;5065122;28;20029;-66
2023/10/10 14:13:19;;;;;;;1.90;1.40;;;30.40;48.00;;;;;;5067961;28;20036;-65
2023/10/10 14:15:54;;;;;;;6.30;2.83;;;31.60;47.50;;;;;;5064630;28;20028;-65
2023/10/10 14:18:28;;;;;;;7.03;2.67;;;32.00;45.20;;;;;;5065872;28;20120;-65
2023/10/10 14:20:55;;;;;;;5.35;3.15;;;31.00;45.70;;;;;;5066152;28;20040;-65
2023/10/10 14:23:25;;;;;;;5.75;2.38;;;29.80;46.50;;;;;;5064545;28;20037;-65
2023/10/10 14:26:12;;;;;;;3.50;1.80;;;28.70;48.60;;;;;;5064798;28;20020;-65
2023/10/10 14:28:48;;;;;;;4.82;2.40;;;27.90;50.60;;;;;;5065023;28;20411;-62
2023/10/10 14:31:14;;;;;;;5.75;2.70;;;27.20;51.90;;;;;;5065241;28;20037;-63
2023/10/10 14:33:40;;;;;;;5.97;3.05;;;26.70;53.10;;;;;;5051316;28;20048;-65
2023/10/10 14:36:12;;;;;;;4.70;2.08;;;26.30;53.50;;;;;;5060394;28;20025;-65
2023/10/10 14:38:44;;;;;;;3.00;1.80;;;26.00;54.60;;;;;;5046139;28;20439;-65
2023/10/10 14:41:17;;;;;;;5.63;2.83;;;25.80;55.00;;;;;;5049967;28;20384;-63
2023/10/10 14:44:00;;;;;;;4.03;1.83;;;25.60;55.30;;;;;;5066282;28;20028;-65
2023/10/10 14:46:31;;;;;;;5.05;2.25;;;26.10;56.00;;;;;;5063608;28;20033;-63
2023/10/10 14:49:01;;;;;;;5.07;1.80;;;27.10;54.50;;;;;;5064369;28;20013;-66
2023/10/10 14:51:36;;;;;;;3.20;1.63;;;27.70;53.20;;;;;;5062322;28;20029;-63
2023/10/10 14:54:11;;;;;;;3.42;1.83;;;28.40;51.70;;;;;;5058208;28;20086;-65
2023/10/10 14:56:39;;;;;;;4.10;1.45;;;29.10;52.00;;;;;;5063385;28;20431;-65
2023/10/10 14:59:06;;;;;;;3.05;1.35;;;30.00;50.70;;;;;;5064138;28;20052;-65
2023/10/10 15:01:36;;;;;;;2.25;1.70;;;30.50;48.80;;;;;;5066897;28;20055;-65
2023/10/10 15:04:03;;;;;;;3.63;1.88;;;30.10;49.50;;;;;;5062191;28;20039;-65
2023/10/10 15:06:29;;;;;;;4.63;1.77;;;29.80;50.20;;;;;;5065504;28;20036;-65
2023/10/10 15:08:55;;;;;;;2.47;2.00;;;29.70;49.00;;;;;;5064650;28;20909;-65
2023/10/10 15:11:21;;;;;;;4.53;1.35;;;29.80;49.20;;;;;;5054949;28;20363;-66
2023/10/10 15:13:48;;;;;;;4.63;2.08;;;29.60;50.80;;;;;;5059413;28;20063;-66
2023/10/10 15:16:14;;;;;;;5.03;1.63;;;29.10;50.10;;;;;;5062929;28;20505;-66
2023/10/10 15:18:41;;;;;;;4.18;1.90;;;28.40;50.60;;;;;;5062918;28;20279;-65
2023/10/10 15:21:07;;;;;;;4.40;1.95;;;27.90;50.80;;;;;;5061195;28;20040;-65
2023/10/10 15:23:33;;;;;;;3.22;1.60;;;27.40;52.10;;;;;;5065902;28;20017;-65
2023/10/10 15:26:06;;;;;;;2.08;1.83;;;26.90;51.90;;;;;;5064753;28;20028;-65
2023/10/10 15:28:32;;;;;;;8.63;2.15;;;26.60;52.90;;;;;;5044589;28;20468;-65
2023/10/10 15:30:58;;;;;;;5.30;1.75;;;26.50;53.40;;;;;;5064075;28;20107;-66
2023/10/10 15:33:25;;;;;;;2.38;1.25;;;26.40;53.30;;;;;;5063100;28;20567;-62
2023/10/10 15:35:52;;;;;;;2.97;1.52;;;26.40;53.60;;;;;;5063686;28;20426;-65
2023/10/10 15:38:22;;;;;;;1.92;1.30;;;26.30;52.70;;;;;;5062043;28;20479;-63
2023/10/10 15:40:49;;;;;;;4.20;1.60;;;26.20;53.20;;;;;;5059107;28;20029;-63
2023/10/10 15:43:14;;;;;;;3.35;2.00;;;25.90;53.10;;;;;;5064472;28;20400;-62
2023/10/10 15:45:44;;;;;;;3.58;2.10;;;25.70;53.80;;;;;;5043284;28;20043;-63
2023/10/10 15:48:22;;;;;;;2.17;1.60;;;25.60;54.70;;;;;;5059972;28;20133;-63
2023/10/10 15:50:59;;;;;;;3.38;1.42;;;25.40;55.00;;;;;;5064400;28;20017;-62
2023/10/10 15:53:25;;;;;;;2.30;1.30;;;25.20;55.10;;;;;;5065087;28;20456;-62
2023/10/10 15:56:07;;;;;;;3.20;1.70;;;25.10;55.70;;;;;;5061392;28;20040;-62
2023/10/10 15:58:52;;;;;;;5.75;1.83;;;25.00;56.20;;;;;;5049770;28;20484;-62
2023/10/10 16:01:22;;;;;;;2.10;1.50;;;24.90;56.50;;;;;;5063466;28;20021;-62